sensor_id;sensor_type;location;lat;lon;timestamp;temperature;humidity
9939;DHT22;5008;50.656;7.188;2023-02-11T05:15:06;2.00;99.90
9939;DHT22;5008;50.656;7.188;2023-02-11T05:17:34;2.10;99.90
9939;DHT22;5008;50.656;7.188;2023-02-11T05:20:01;2.20;99.90
9939;DHT22;5008;50.656;7.188;2023-02-11T05:22:28;2.30;99.90
9939;DHT22;5008;50.656;7.188;2023-02-11T05:24:54;2.30;99.90
9939;DHT22;5008;50.656;7.188;2023-02-11T05:27:21;2.40;99.90
9939;DHT22;5008;50.656;7.188;2023-02-11T05:29:48;2.50;99.90
9939;DHT22;5008;50.656;7.188;2023-02-11T05:32:19;2.60;99.90
9939;DHT22;5008;50.656;7.188;2023-02-11T05:34:47;2.60;99.90
9939;DHT22;5008;50.656;7.188;2023-02-11T05:37:14;2.60;99.90
9939;DHT22;5008;50.656;7.188;2023-02-11T05:39:40;2.50;99.90
9939;DHT22;5008;50.656;7.188;2023-02-11T05:42:07;2.60;99.90
9939;DHT22;5008;50.656;7.188;2023-02-11T05:44:34;2.50;99.90
9939;DHT22;5008;50.656;7.188;2023-02-11T05:47:01;2.50;99.90
9939;DHT22;5008;50.656;7.188;2023-02-11T05:49:28;2.60;99.90
9939;DHT22;5008;50.656;7.188;2023-02-11T05:51:56;2.60;99.90
9939;DHT22;5008;50.656;7.188;2023-02-11T05:54:23;2.60;99.90
9939;DHT22;5008;50.656;7.188;2023-02-11T05:56:49;2.70;99.90
9939;DHT22;5008;50.656;7.188;2023-02-11T05:59:16;2.80;99.90
9939;DHT22;5008;50.656;7.188;2023-02-11T06:01:43;2.70;99.90
9939;DHT22;5008;50.656;7.188;2023-02-11T06:04:10;2.70;99.90
9939;DHT22;5008;50.656;7.188;2023-02-11T06:06:37;2.70;99.90
9939;DHT22;5008;50.656;7.188;2023-02-11T06:09:05;2.70;99.90
9939;DHT22;5008;50.656;7.188;2023-02-11T06:11:32;2.80;99.90
9939;DHT22;5008;50.656;7.188;2023-02-11T06:13:59;2.70;99.90
9939;DHT22;5008;50.656;7.188;2023-02-11T06:16:26;2.80;99.90
9939;DHT22;5008;50.656;7.188;2023-02-11T06:18:53;2.80;99.90
9939;DHT22;5008;50.656;7.188;2023-02-11T06:21:20;2.80;99.90
9939;DHT22;5008;50.656;7.188;2023-02-11T06:23:46;2.90;99.90
9939;DHT22;5008;50.656;7.188;2023-02-11T06:26:18;2.90;99.90
9939;DHT22;5008;50.656;7.188;2023-02-11T06:28:45;3.00;99.90
9939;DHT22;5008;50.656;7.188;2023-02-11T06:31:12;3.10;99.90
9939;DHT22;5008;50.656;7.188;2023-02-11T06:33:39;3.20;99.90
9939;DHT22;5008;50.656;7.188;2023-02-11T06:36:12;3.30;99.90
9939;DHT22;5008;50.656;7.188;2023-02-11T06:38:39;3.40;99.90
9939;DHT22;5008;50.656;7.188;2023-02-11T06:41:08;3.40;99.90
9939;DHT22;5008;50.656;7.188;2023-02-11T06:43:37;3.40;99.90
9939;DHT22;5008;50.656;7.188;2023-02-11T06:46:04;3.40;99.90
9939;DHT22;5008;50.656;7.188;2023-02-11T06:48:31;3.40;99.90
9939;DHT22;5008;50.656;7.188;2023-02-11T06:51:00;3.40;99.90
9939;DHT22;5008;50.656;7.188;2023-02-11T06:53:27;3.40;99.90
9939;DHT22;5008;50.656;7.188;2023-02-11T06:55:54;3.40;99.90
9939;DHT22;5008;50.656;7.188;2023-02-11T06:58:20;3.40;99.90
9939;DHT22;5008;50.656;7.188;2023-02-11T07:00:49;3.50;99.90
9939;DHT22;5008;50.656;7.188;2023-02-11T07:03:16;3.50;99.90
9939;DHT22;5008;50.656;7.188;2023-02-11T07:05:43;3.50;99.90
9939;DHT22;5008;50.656;7.188;2023-02-11T07:08:10;3.50;99.90
9939;DHT22;5008;50.656;7.188;2023-02-11T07:10:37;3.60;99.90
9939;DHT22;5008;50.656;7.188;2023-02-11T07:13:03;3.60;99.90
9939;DHT22;5008;50.656;7.188;2023-02-11T07:15:30;3.60;99.90
9939;DHT22;5008;50.656;7.188;2023-02-11T07:17:58;3.70;99.90
9939;DHT22;5008;50.656;7.188;2023-02-11T07:20:25;3.60;99.90
9939;DHT22;5008;50.656;7.188;2023-02-11T07:22:52;3.60;99.90
9939;DHT22;5008;50.656;7.188;2023-02-11T07:25:19;3.60;99.90
9939;DHT22;5008;50.656;7.188;2023-02-11T07:27:46;3.60;99.90
9939;DHT22;5008;50.656;7.188;2023-02-11T07:30:14;3.60;99.90
9939;DHT22;5008;50.656;7.188;2023-02-11T07:32:41;3.70;99.90
9939;DHT22;5008;50.656;7.188;2023-02-11T07:35:09;3.70;99.90
9939;DHT22;5008;50.656;7.188;2023-02-11T07:37:36;3.70;99.90
9939;DHT22;5008;50.656;7.188;2023-02-11T07:40:03;3.80;99.90
9939;DHT22;5008;50.656;7.188;2023-02-11T07:42:30;3.80;99.90
9939;DHT22;5008;50.656;7.188;2023-02-11T07:44:57;3.90;99.90
9939;DHT22;5008;50.656;7.188;2023-02-11T07:47:24;3.90;99.90
9939;DHT22;5008;50.656;7.188;2023-02-11T07:49:50;3.90;99.90
9939;DHT22;5008;50.656;7.188;2023-02-11T07:52:18;4.00;99.90
9939;DHT22;5008;50.656;7.188;2023-02-11T07:54:47;4.10;99.90
9939;DHT22;5008;50.656;7.188;2023-02-11T07:57:14;4.10;99.90
9939;DHT22;5008;50.656;7.188;2023-02-11T07:59:40;4.10;99.90
9939;DHT22;5008;50.656;7.188;2023-02-11T08:02:08;4.10;99.90
9939;DHT22;5008;50.656;7.188;2023-02-11T08:04:34;4.10;99.90
9939;DHT22;5008;50.656;7.188;2023-02-11T08:07:01;4.10;99.90
9939;DHT22;5008;50.656;7.188;2023-02-11T08:09:29;4.10;99.90
9939;DHT22;5008;50.656;7.188;2023-02-11T08:11:56;4.10;99.90
9939;DHT22;5008;50.656;7.188;2023-02-11T08:14:24;4.10;99.90
9939;DHT22;5008;50.656;7.188;2023-02-11T08:16:51;4.00;99.90
9939;DHT22;5008;50.656;7.188;2023-02-11T08:19:19;4.10;99.90
9939;DHT22;5008;50.656;7.188;2023-02-11T08:21:46;4.10;99.90
9939;DHT22;5008;50.656;7.188;2023-02-11T08:24:13;4.10;99.90
9939;DHT22;5008;50.656;7.188;2023-02-11T08:26:41;4.10;99.90
9939;DHT22;5008;50.656;7.188;2023-02-11T08:29:11;4.10;99.90
9939;DHT22;5008;50.656;7.188;2023-02-11T08:31:40;4.20;99.90
9939;DHT22;5008;50.656;7.188;2023-02-11T08:34:07;4.20;99.90
9939;DHT22;5008;50.656;7.188;2023-02-11T08:36:36;4.20;99.90
9939;DHT22;5008;50.656;7.188;2023-02-11T08:39:05;4.20;99.90
9939;DHT22;5008;50.656;7.188;2023-02-11T08:41:33;4.30;99.90
9939;DHT22;5008;50.656;7.188;2023-02-11T08:44:02;4.30;99.90
9939;DHT22;5008;50.656;7.188;2023-02-11T08:46:29;4.30;99.90
9939;DHT22;5008;50.656;7.188;2023-02-11T08:48:56;4.30;99.90
9939;DHT22;5008;50.656;7.188;2023-02-11T08:51:25;4.40;99.90
9939;DHT22;5008;50.656;7.188;2023-02-11T08:53:58;4.40;99.90
9939;DHT22;5008;50.656;7.188;2023-02-11T08:56:25;4.40;99.90
9939;DHT22;5008;50.656;7.188;2023-02-11T08:58:53;4.50;99.90
9939;DHT22;5008;50.656;7.188;2023-02-11T09:01:22;4.60;99.90
9939;DHT22;5008;50.656;7.188;2023-02-11T09:03:50;4.60;99.90
9939;DHT22;5008;50.656;7.188;2023-02-11T09:06:17;4.60;99.90
9939;DHT22;5008;50.656;7.188;2023-02-11T09:08:46;4.70;99.90
9939;DHT22;5008;50.656;7.188;2023-02-11T09:11:15;4.80;99.90
9939;DHT22;5008;50.656;7.188;2023-02-11T09:13:42;4.80;99.90
9939;DHT22;5008;50.656;7.188;2023-02-11T09:16:17;4.80;99.90
9939;DHT22;5008;50.656;7.188;2023-02-11T09:18:45;4.90;99.90
9939;DHT22;5008;50.656;7.188;2023-02-11T09:21:14;4.90;99.90
9939;DHT22;5008;50.656;7.188;2023-02-11T09:23:41;4.90;99.90
9939;DHT22;5008;50.656;7.188;2023-02-11T09:26:12;4.90;99.90
9939;DHT22;5008;50.656;7.188;2023-02-11T09:28:40;4.90;99.90
9939;DHT22;5008;50.656;7.188;2023-02-11T09:31:08;4.90;99.90
9939;DHT22;5008;50.656;7.188;2023-02-11T09:33:36;4.90;99.90
9939;DHT22;5008;50.656;7.188;2023-02-11T09:36:06;4.90;99.90
9939;DHT22;5008;50.656;7.188;2023-02-11T09:38:33;4.90;99.90
9939;DHT22;5008;50.656;7.188;2023-02-11T09:40:59;4.90;99.90
9939;DHT22;5008;50.656;7.188;2023-02-11T09:43:33;4.90;99.90
9939;DHT22;5008;50.656;7.188;2023-02-11T09:46:03;5.00;99.90
9939;DHT22;5008;50.656;7.188;2023-02-11T09:48:37;5.10;99.90
9939;DHT22;5008;50.656;7.188;2023-02-11T09:51:14;5.00;99.90
9939;DHT22;5008;50.656;7.188;2023-02-11T09:53:42;5.00;99.90
9939;DHT22;5008;50.656;7.188;2023-02-11T09:56:11;5.00;99.90
9939;DHT22;5008;50.656;7.188;2023-02-11T09:58:39;5.00;99.90
9939;DHT22;5008;50.656;7.188;2023-02-11T10:01:14;5.10;99.90
9939;DHT22;5008;50.656;7.188;2023-02-11T10:03:58;5.10;99.90
9939;DHT22;5008;50.656;7.188;2023-02-11T10:06:42;5.20;99.90
9939;DHT22;5008;50.656;7.188;2023-02-11T10:09:24;5.20;99.90
9939;DHT22;5008;50.656;7.188;2023-02-11T10:12:02;5.30;99.90
9939;DHT22;5008;50.656;7.188;2023-02-11T10:14:50;5.30;99.90
9939;DHT22;5008;50.656;7.188;2023-02-11T10:17:26;5.30;99.90
9939;DHT22;5008;50.656;7.188;2023-02-11T10:20:06;5.40;99.90
9939;DHT22;5008;50.656;7.188;2023-02-11T10:22:41;5.50;99.90
9939;DHT22;5008;50.656;7.188;2023-02-11T10:25:17;5.50;99.90
9939;DHT22;5008;50.656;7.188;2023-02-11T10:27:45;5.60;99.90
9939;DHT22;5008;50.656;7.188;2023-02-11T10:30:20;5.60;99.90
9939;DHT22;5008;50.656;7.188;2023-02-11T10:32:50;5.60;99.90
9939;DHT22;5008;50.656;7.188;2023-02-11T10:35:20;5.60;99.90
9939;DHT22;5008;50.656;7.188;2023-02-11T10:37:48;5.60;99.90
9939;DHT22;5008;50.656;7.188;2023-02-11T10:40:18;5.70;99.90
9939;DHT22;5008;50.656;7.188;2023-02-11T10:42:47;5.70;99.90
9939;DHT22;5008;50.656;7.188;2023-02-11T10:45:18;5.70;99.90
9939;DHT22;5008;50.656;7.188;2023-02-11T10:47:47;5.80;99.90
9939;DHT22;5008;50.656;7.188;2023-02-11T10:50:25;5.80;99.90
9939;DHT22;5008;50.656;7.188;2023-02-11T10:53:11;5.90;99.90
9939;DHT22;5008;50.656;7.188;2023-02-11T10:55:46;5.90;99.90
9939;DHT22;5008;50.656;7.188;2023-02-11T10:58:23;5.90;99.90
9939;DHT22;5008;50.656;7.188;2023-02-11T11:00:52;5.90;99.90
9939;DHT22;5008;50.656;7.188;2023-02-11T11:03:20;6.00;99.90
9939;DHT22;5008;50.656;7.188;2023-02-11T11:05:50;6.00;99.90
9939;DHT22;5008;50.656;7.188;2023-02-11T11:08:18;6.00;99.90
9939;DHT22;5008;50.656;7.188;2023-02-11T11:10:46;6.00;99.90
9939;DHT22;5008;50.656;7.188;2023-02-11T11:13:26;6.00;99.90
9939;DHT22;5008;50.656;7.188;2023-02-11T11:32:12;6.20;99.90
9939;DHT22;5008;50.656;7.188;2023-02-11T11:34:41;6.20;99.90
9939;DHT22;5008;50.656;7.188;2023-02-11T11:37:11;6.20;99.90
9939;DHT22;5008;50.656;7.188;2023-02-11T11:39:39;6.20;99.90
9939;DHT22;5008;50.656;7.188;2023-02-11T11:42:24;6.20;99.90
9939;DHT22;5008;50.656;7.188;2023-02-11T11:44:56;6.20;99.90
9939;DHT22;5008;50.656;7.188;2023-02-11T11:47:30;6.20;99.90
9939;DHT22;5008;50.656;7.188;2023-02-11T11:50:14;6.30;99.90
9939;DHT22;5008;50.656;7.188;2023-02-11T11:52:48;6.30;99.90
9939;DHT22;5008;50.656;7.188;2023-02-11T11:55:18;6.30;99.90
9939;DHT22;5008;50.656;7.188;2023-02-11T11:57:47;6.30;99.90
9939;DHT22;5008;50.656;7.188;2023-02-11T12:00:19;6.30;99.90
9939;DHT22;5008;50.656;7.188;2023-02-11T12:03:19;6.30;99.90
9939;DHT22;5008;50.656;7.188;2023-02-11T12:06:01;6.30;99.90
9939;DHT22;5008;50.656;7.188;2023-02-11T12:08:41;6.30;99.90
9939;DHT22;5008;50.656;7.188;2023-02-11T12:11:15;6.40;99.90
9939;DHT22;5008;50.656;7.188;2023-02-11T12:13:59;6.40;99.90
9939;DHT22;5008;50.656;7.188;2023-02-11T12:16:38;6.40;99.90
9939;DHT22;5008;50.656;7.188;2023-02-11T12:19:21;6.50;99.90
9939;DHT22;5008;50.656;7.188;2023-02-11T12:22:02;6.50;99.90
9939;DHT22;5008;50.656;7.188;2023-02-11T12:24:44;6.60;99.90
9939;DHT22;5008;50.656;7.188;2023-02-11T12:27:17;6.60;99.90
9939;DHT22;5008;50.656;7.188;2023-02-11T12:29:56;6.70;99.90
9939;DHT22;5008;50.656;7.188;2023-02-11T12:32:32;6.80;99.90
9939;DHT22;5008;50.656;7.188;2023-02-11T12:35:23;6.80;99.90
9939;DHT22;5008;50.656;7.188;2023-02-11T12:38:23;6.90;99.90
9939;DHT22;5008;50.656;7.188;2023-02-11T12:41:03;6.90;99.90
9939;DHT22;5008;50.656;7.188;2023-02-11T12:43:36;7.00;99.90
9939;DHT22;5008;50.656;7.188;2023-02-11T12:46:29;7.00;99.90
9939;DHT22;5008;50.656;7.188;2023-02-11T12:49:18;7.00;99.90
9939;DHT22;5008;50.656;7.188;2023-02-11T12:52:02;7.00;99.90
9939;DHT22;5008;50.656;7.188;2023-02-11T12:54:38;7.00;99.90
9939;DHT22;5008;50.656;7.188;2023-02-11T12:57:14;7.00;99.90
9939;DHT22;5008;50.656;7.188;2023-02-11T12:59:48;7.00;99.90
9939;DHT22;5008;50.656;7.188;2023-02-11T13:02:26;7.00;99.90
9939;DHT22;5008;50.656;7.188;2023-02-11T13:04:54;7.00;99.90
9939;DHT22;5008;50.656;7.188;2023-02-11T13:07:28;7.00;99.90
9939;DHT22;5008;50.656;7.188;2023-02-11T13:10:00;7.00;99.90
9939;DHT22;5008;50.656;7.188;2023-02-11T13:12:31;7.10;99.90
9939;DHT22;5008;50.656;7.188;2023-02-11T13:15:17;7.00;99.90
9939;DHT22;5008;50.656;7.188;2023-02-11T13:17:51;7.10;99.90
9939;DHT22;5008;50.656;7.188;2023-02-11T13:20:31;7.10;99.90
9939;DHT22;5008;50.656;7.188;2023-02-11T13:23:07;7.10;99.90
9939;DHT22;5008;50.656;7.188;2023-02-11T13:25:42;7.10;99.90
9939;DHT22;5008;50.656;7.188;2023-02-11T13:28:19;7.10;99.90
9939;DHT22;5008;50.656;7.188;2023-02-11T13:30:49;7.10;99.90
9939;DHT22;5008;50.656;7.188;2023-02-11T13:33:34;7.10;99.90
9939;DHT22;5008;50.656;7.188;2023-02-11T13:36:16;7.10;99.90
9939;DHT22;5008;50.656;7.188;2023-02-11T13:38:56;7.10;99.90
9939;DHT22;5008;50.656;7.188;2023-02-11T13:41:28;7.10;99.90
9939;DHT22;5008;50.656;7.188;2023-02-11T13:44:26;7.10;99.90
9939;DHT22;5008;50.656;7.188;2023-02-11T13:46:57;7.20;99.90
9939;DHT22;5008;50.656;7.188;2023-02-11T13:49:30;7.20;99.90
9939;DHT22;5008;50.656;7.188;2023-02-11T13:51:58;7.10;99.90
9939;DHT22;5008;50.656;7.188;2023-02-11T13:54:33;7.20;99.90
9939;DHT22;5008;50.656;7.188;2023-02-11T13:57:30;7.20;99.90
9939;DHT22;5008;50.656;7.188;2023-02-11T13:59:58;7.10;99.90
9939;DHT22;5008;50.656;7.188;2023-02-11T14:02:29;7.10;99.90
9939;DHT22;5008;50.656;7.188;2023-02-11T14:05:23;7.20;99.90
9939;DHT22;5008;50.656;7.188;2023-02-11T14:08:20;7.10;99.90
9939;DHT22;5008;50.656;7.188;2023-02-11T14:11:08;7.20;99.90
9939;DHT22;5008;50.656;7.188;2023-02-11T14:14:02;7.10;99.90
9939;DHT22;5008;50.656;7.188;2023-02-11T14:19:48;7.10;99.90
9939;DHT22;5008;50.656;7.188;2023-02-11T14:22:18;7.20;99.90
9939;DHT22;5008;50.656;7.188;2023-02-11T14:24:51;7.20;99.90
9939;DHT22;5008;50.656;7.188;2023-02-11T14:27:24;7.20;99.90
9939;DHT22;5008;50.656;7.188;2023-02-11T14:33:08;7.20;99.90
9939;DHT22;5008;50.656;7.188;2023-02-11T14:35:46;7.20;99.90
9939;DHT22;5008;50.656;7.188;2023-02-11T14:38:21;7.20;99.90
9939;DHT22;5008;50.656;7.188;2023-02-11T14:40:54;7.20;99.90
9939;DHT22;5008;50.656;7.188;2023-02-11T14:43:28;7.30;99.90
9939;DHT22;5008;50.656;7.188;2023-02-11T14:45:57;7.30;99.90
9939;DHT22;5008;50.656;7.188;2023-02-11T14:48:28;7.30;99.90
9939;DHT22;5008;50.656;7.188;2023-02-11T14:51:00;7.30;99.90
9939;DHT22;5008;50.656;7.188;2023-02-11T14:53:30;7.30;99.90
9939;DHT22;5008;50.656;7.188;2023-02-11T14:55:58;7.30;99.90
9939;DHT22;5008;50.656;7.188;2023-02-11T14:58:27;7.30;99.90
9939;DHT22;5008;50.656;7.188;2023-02-11T15:00:56;7.30;99.90
9939;DHT22;5008;50.656;7.188;2023-02-11T15:03:30;7.30;99.90
9939;DHT22;5008;50.656;7.188;2023-02-11T15:05:58;7.30;99.90
9939;DHT22;5008;50.656;7.188;2023-02-11T15:08:26;7.20;99.90
9939;DHT22;5008;50.656;7.188;2023-02-11T15:10:54;7.30;99.90
9939;DHT22;5008;50.656;7.188;2023-02-11T15:13:23;7.30;99.90
9939;DHT22;5008;50.656;7.188;2023-02-11T15:16:00;7.30;99.90
9939;DHT22;5008;50.656;7.188;2023-02-11T15:18:34;7.30;99.90
9939;DHT22;5008;50.656;7.188;2023-02-11T15:21:03;7.20;99.90
9939;DHT22;5008;50.656;7.188;2023-02-11T15:23:31;7.30;99.90
9939;DHT22;5008;50.656;7.188;2023-02-11T15:25:58;7.30;99.90
9939;DHT22;5008;50.656;7.188;2023-02-11T15:28:31;7.20;99.90
9939;DHT22;5008;50.656;7.188;2023-02-11T15:31:02;7.20;99.90
9939;DHT22;5008;50.656;7.188;2023-02-11T15:33:29;7.20;99.90
9939;DHT22;5008;50.656;7.188;2023-02-11T15:35:58;7.20;99.90
9939;DHT22;5008;50.656;7.188;2023-02-11T15:38:25;7.20;99.90
9939;DHT22;5008;50.656;7.188;2023-02-11T15:40:53;7.20;99.90
9939;DHT22;5008;50.656;7.188;2023-02-11T15:43:21;7.20;99.90
9939;DHT22;5008;50.656;7.188;2023-02-11T15:45:57;7.20;99.90
9939;DHT22;5008;50.656;7.188;2023-02-11T15:48:33;7.20;99.90
9939;DHT22;5008;50.656;7.188;2023-02-11T15:51:02;7.20;99.90
9939;DHT22;5008;50.656;7.188;2023-02-11T15:53:36;7.20;99.90
9939;DHT22;5008;50.656;7.188;2023-02-11T15:56:11;7.20;99.90
9939;DHT22;5008;50.656;7.188;2023-02-11T15:58:42;7.20;99.90
9939;DHT22;5008;50.656;7.188;2023-02-11T16:01:10;7.20;99.90
9939;DHT22;5008;50.656;7.188;2023-02-11T16:03:40;7.20;99.90
9939;DHT22;5008;50.656;7.188;2023-02-11T16:06:21;7.20;99.90
9939;DHT22;5008;50.656;7.188;2023-02-11T16:08:59;7.20;99.90
9939;DHT22;5008;50.656;7.188;2023-02-11T16:11:28;7.20;99.90
9939;DHT22;5008;50.656;7.188;2023-02-11T16:13:56;7.10;99.90
9939;DHT22;5008;50.656;7.188;2023-02-11T16:16:27;7.10;99.90
9939;DHT22;5008;50.656;7.188;2023-02-11T16:18:58;7.20;99.90
9939;DHT22;5008;50.656;7.188;2023-02-11T16:21:29;7.10;99.90
9939;DHT22;5008;50.656;7.188;2023-02-11T16:24:00;7.10;99.90
9939;DHT22;5008;50.656;7.188;2023-02-11T16:26:30;7.10;99.90
9939;DHT22;5008;50.656;7.188;2023-02-11T16:29:03;7.10;99.90
9939;DHT22;5008;50.656;7.188;2023-02-11T16:31:32;7.00;99.90
9939;DHT22;5008;50.656;7.188;2023-02-11T16:34:01;7.10;99.90
9939;DHT22;5008;50.656;7.188;2023-02-11T16:36:28;7.00;99.90
9939;DHT22;5008;50.656;7.188;2023-02-11T16:38:55;7.00;99.90
9939;DHT22;5008;50.656;7.188;2023-02-11T16:41:22;7.00;99.90
9939;DHT22;5008;50.656;7.188;2023-02-11T16:43:48;7.00;99.90
9939;DHT22;5008;50.656;7.188;2023-02-11T16:46:15;7.00;99.90
9939;DHT22;5008;50.656;7.188;2023-02-11T16:48:42;7.00;99.90
9939;DHT22;5008;50.656;7.188;2023-02-11T16:51:11;6.90;99.90
9939;DHT22;5008;50.656;7.188;2023-02-11T16:53:38;6.90;99.90
9939;DHT22;5008;50.656;7.188;2023-02-11T16:56:05;6.90;99.90
9939;DHT22;5008;50.656;7.188;2023-02-11T16:58:32;6.90;99.90
9939;DHT22;5008;50.656;7.188;2023-02-11T17:00:59;6.90;99.90
9939;DHT22;5008;50.656;7.188;2023-02-11T17:03:26;6.90;99.90
9939;DHT22;5008;50.656;7.188;2023-02-11T17:05:54;6.90;99.90
9939;DHT22;5008;50.656;7.188;2023-02-11T17:08:28;6.90;99.90
9939;DHT22;5008;50.656;7.188;2023-02-11T17:10:55;6.80;99.90
9939;DHT22;5008;50.656;7.188;2023-02-11T17:13:22;6.80;99.90
9939;DHT22;5008;50.656;7.188;2023-02-11T17:15:48;6.80;99.90
9939;DHT22;5008;50.656;7.188;2023-02-11T17:18:15;6.80;99.90
9939;DHT22;5008;50.656;7.188;2023-02-11T17:20:42;6.80;99.90
9939;DHT22;5008;50.656;7.188;2023-02-11T17:23:09;6.80;99.90
9939;DHT22;5008;50.656;7.188;2023-02-11T17:25:38;6.80;99.90
9939;DHT22;5008;50.656;7.188;2023-02-11T17:28:07;6.80;99.90
9939;DHT22;5008;50.656;7.188;2023-02-11T17:30:34;6.80;99.90
9939;DHT22;5008;50.656;7.188;2023-02-11T17:33:01;6.80;99.90
9939;DHT22;5008;50.656;7.188;2023-02-11T17:35:28;6.80;99.90
9939;DHT22;5008;50.656;7.188;2023-02-11T17:37:55;6.80;99.90
9939;DHT22;5008;50.656;7.188;2023-02-11T17:40:23;6.80;99.90
9939;DHT22;5008;50.656;7.188;2023-02-11T17:42:52;6.70;99.90
9939;DHT22;5008;50.656;7.188;2023-02-11T17:45:20;6.70;99.90
9939;DHT22;5008;50.656;7.188;2023-02-11T17:47:47;6.70;99.90
9939;DHT22;5008;50.656;7.188;2023-02-11T17:50:15;6.70;99.90
9939;DHT22;5008;50.656;7.188;2023-02-11T17:52:42;6.70;99.90
9939;DHT22;5008;50.656;7.188;2023-02-11T17:55:12;6.60;99.90
9939;DHT22;5008;50.656;7.188;2023-02-11T17:57:39;6.60;99.90
9939;DHT22;5008;50.656;7.188;2023-02-11T18:00:09;6.70;99.90
9939;DHT22;5008;50.656;7.188;2023-02-11T18:02:36;6.70;99.90
9939;DHT22;5008;50.656;7.188;2023-02-11T18:05:04;6.70;99.90
9939;DHT22;5008;50.656;7.188;2023-02-11T18:07:30;6.70;99.90
9939;DHT22;5008;50.656;7.188;2023-02-11T18:09:57;6.70;99.90
9939;DHT22;5008;50.656;7.188;2023-02-11T18:12:24;6.70;99.90
9939;DHT22;5008;50.656;7.188;2023-02-11T18:14:52;6.70;99.90
9939;DHT22;5008;50.656;7.188;2023-02-11T18:17:21;6.70;99.90
9939;DHT22;5008;50.656;7.188;2023-02-11T18:19:48;6.80;99.90
9939;DHT22;5008;50.656;7.188;2023-02-11T18:22:16;6.70;99.90
9939;DHT22;5008;50.656;7.188;2023-02-11T18:24:43;6.70;99.90
9939;DHT22;5008;50.656;7.188;2023-02-11T18:27:10;6.70;99.90
9939;DHT22;5008;50.656;7.188;2023-02-11T18:29:37;6.70;99.90
9939;DHT22;5008;50.656;7.188;2023-02-11T18:32:04;6.70;99.90
9939;DHT22;5008;50.656;7.188;2023-02-11T18:34:33;6.70;99.90
9939;DHT22;5008;50.656;7.188;2023-02-11T18:37:00;6.70;99.90
9939;DHT22;5008;50.656;7.188;2023-02-11T18:39:33;6.70;99.90
9939;DHT22;5008;50.656;7.188;2023-02-11T18:42:10;6.60;99.90
9939;DHT22;5008;50.656;7.188;2023-02-11T18:44:53;6.70;99.90
9939;DHT22;5008;50.656;7.188;2023-02-11T18:47:24;6.60;99.90
9939;DHT22;5008;50.656;7.188;2023-02-11T18:49:57;6.60;99.90
9939;DHT22;5008;50.656;7.188;2023-02-11T18:52:26;6.70;99.90
9939;DHT22;5008;50.656;7.188;2023-02-11T18:55:00;6.60;99.90
9939;DHT22;5008;50.656;7.188;2023-02-11T18:57:28;6.70;99.90
9939;DHT22;5008;50.656;7.188;2023-02-11T18:59:56;6.60;99.90
9939;DHT22;5008;50.656;7.188;2023-02-11T19:02:43;6.60;99.90
9939;DHT22;5008;50.656;7.188;2023-02-11T19:05:51;6.70;99.90
9939;DHT22;5008;50.656;7.188;2023-02-11T19:08:25;6.60;99.90
9939;DHT22;5008;50.656;7.188;2023-02-11T19:10:52;6.60;99.90
9939;DHT22;5008;50.656;7.188;2023-02-11T19:13:27;6.60;99.90
9939;DHT22;5008;50.656;7.188;2023-02-11T19:15:55;6.60;99.90
9939;DHT22;5008;50.656;7.188;2023-02-11T19:18:25;6.60;99.90
9939;DHT22;5008;50.656;7.188;2023-02-11T19:21:04;6.60;99.90
9939;DHT22;5008;50.656;7.188;2023-02-11T19:23:57;6.60;99.90
9939;DHT22;5008;50.656;7.188;2023-02-11T19:26:34;6.60;99.90
9939;DHT22;5008;50.656;7.188;2023-02-11T19:29:20;6.60;99.90
9939;DHT22;5008;50.656;7.188;2023-02-11T19:32:06;6.50;99.90
9939;DHT22;5008;50.656;7.188;2023-02-11T19:34:39;6.60;99.90
9939;DHT22;5008;50.656;7.188;2023-02-11T19:37:15;6.50;99.90
9939;DHT22;5008;50.656;7.188;2023-02-11T19:39:51;6.50;99.90
9939;DHT22;5008;50.656;7.188;2023-02-11T19:42:43;6.50;99.90
9939;DHT22;5008;50.656;7.188;2023-02-11T19:45:12;6.50;99.90
9939;DHT22;5008;50.656;7.188;2023-02-11T19:47:57;6.50;99.90
9939;DHT22;5008;50.656;7.188;2023-02-11T19:50:27;6.50;99.90
9939;DHT22;5008;50.656;7.188;2023-02-11T19:52:57;6.40;99.90
9939;DHT22;5008;50.656;7.188;2023-02-11T19:55:35;6.40;99.90
9939;DHT22;5008;50.656;7.188;2023-02-11T19:58:02;6.40;99.90
9939;DHT22;5008;50.656;7.188;2023-02-11T20:00:30;6.30;99.90
9939;DHT22;5008;50.656;7.188;2023-02-11T20:03:00;6.30;99.90
9939;DHT22;5008;50.656;7.188;2023-02-11T20:05:32;6.30;99.90
9939;DHT22;5008;50.656;7.188;2023-02-11T20:08:09;6.30;99.90
9939;DHT22;5008;50.656;7.188;2023-02-11T20:10:38;6.30;99.90
9939;DHT22;5008;50.656;7.188;2023-02-11T20:13:06;6.30;99.90
9939;DHT22;5008;50.656;7.188;2023-02-11T20:15:34;6.30;99.90
9939;DHT22;5008;50.656;7.188;2023-02-11T20:18:02;6.30;99.90
9939;DHT22;5008;50.656;7.188;2023-02-11T20:20:30;6.20;99.90
9939;DHT22;5008;50.656;7.188;2023-02-11T20:23:01;6.20;99.90
9939;DHT22;5008;50.656;7.188;2023-02-11T20:25:30;6.20;99.90
9939;DHT22;5008;50.656;7.188;2023-02-11T20:28:04;6.20;99.90
9939;DHT22;5008;50.656;7.188;2023-02-11T20:30:34;6.20;99.90
9939;DHT22;5008;50.656;7.188;2023-02-11T20:33:03;6.20;99.90
9939;DHT22;5008;50.656;7.188;2023-02-11T20:35:30;6.20;99.90
9939;DHT22;5008;50.656;7.188;2023-02-11T20:37:58;6.20;99.90
9939;DHT22;5008;50.656;7.188;2023-02-11T20:40:29;6.20;99.90
9939;DHT22;5008;50.656;7.188;2023-02-11T20:42:56;6.30;99.90
9939;DHT22;5008;50.656;7.188;2023-02-11T20:45:25;6.20;99.90
9939;DHT22;5008;50.656;7.188;2023-02-11T20:47:53;6.10;99.90
9939;DHT22;5008;50.656;7.188;2023-02-11T20:50:21;6.10;99.90
9939;DHT22;5008;50.656;7.188;2023-02-11T20:56:50;6.20;99.90
9939;DHT22;5008;50.656;7.188;2023-02-11T20:59:18;6.10;99.90
9939;DHT22;5008;50.656;7.188;2023-02-11T21:01:55;6.10;99.90
9939;DHT22;5008;50.656;7.188;2023-02-11T21:04:25;6.10;99.90
9939;DHT22;5008;50.656;7.188;2023-02-11T21:06:59;6.10;99.90
9939;DHT22;5008;50.656;7.188;2023-02-11T21:09:31;6.10;99.90
9939;DHT22;5008;50.656;7.188;2023-02-11T21:12:04;6.10;99.90
9939;DHT22;5008;50.656;7.188;2023-02-11T21:14:32;6.00;99.90
9939;DHT22;5008;50.656;7.188;2023-02-11T21:17:04;6.10;99.90
9939;DHT22;5008;50.656;7.188;2023-02-11T21:19:45;6.10;99.90
9939;DHT22;5008;50.656;7.188;2023-02-11T21:22:28;6.10;99.90
9939;DHT22;5008;50.656;7.188;2023-02-11T21:24:56;6.10;99.90
9939;DHT22;5008;50.656;7.188;2023-02-11T21:27:34;6.10;99.90
9939;DHT22;5008;50.656;7.188;2023-02-11T21:30:05;6.00;99.90
9939;DHT22;5008;50.656;7.188;2023-02-11T21:32:32;5.90;99.90
9939;DHT22;5008;50.656;7.188;2023-02-11T21:35:01;5.90;99.90
9939;DHT22;5008;50.656;7.188;2023-02-11T21:37:28;6.00;99.90
9939;DHT22;5008;50.656;7.188;2023-02-11T21:39:56;6.00;99.90
9939;DHT22;5008;50.656;7.188;2023-02-11T21:42:23;6.00;99.90
9939;DHT22;5008;50.656;7.188;2023-02-11T21:44:52;6.00;99.90
9939;DHT22;5008;50.656;7.188;2023-02-11T21:47:21;6.00;99.90
9939;DHT22;5008;50.656;7.188;2023-02-11T21:49:49;6.00;99.90
9939;DHT22;5008;50.656;7.188;2023-02-11T21:52:18;6.00;99.90
9939;DHT22;5008;50.656;7.188;2023-02-11T21:54:48;5.90;99.90
9939;DHT22;5008;50.656;7.188;2023-02-11T21:57:37;5.90;99.90
9939;DHT22;5008;50.656;7.188;2023-02-11T22:00:09;5.80;99.90
